createdAt,value
2019-02-06T00:00:50.898Z,39.03
2019-02-06T00:03:22.910Z,37.30
2019-02-06T00:05:54.394Z,38.03
2019-02-06T00:08:24.909Z,37.87
2019-02-06T00:10:55.261Z,35.27
2019-02-06T00:13:25.667Z,35.63
2019-02-06T00:15:56.535Z,35.10
2019-02-06T00:18:27.754Z,33.90
2019-02-06T00:20:58.120Z,32.57
2019-02-06T00:23:28.514Z,31.93
2019-02-06T00:25:58.871Z,29.17
2019-02-06T00:28:29.272Z,31.50
2019-02-06T00:30:59.659Z,30.70
2019-02-06T00:33:29.945Z,29.37
2019-02-06T00:36:00.343Z,28.93
2019-02-06T00:38:30.599Z,29.20
2019-02-06T00:41:00.878Z,29.83
2019-02-06T00:43:31.423Z,28.00
2019-02-06T00:46:01.783Z,27.20
2019-02-06T00:48:32.176Z,26.90
2019-02-06T00:51:02.467Z,27.80
2019-02-06T00:53:32.807Z,26.10
2019-02-06T00:56:03.245Z,26.30
2019-02-06T00:58:33.702Z,26.63
2019-02-06T01:01:04.282Z,27.53
2019-02-06T01:03:34.776Z,26.73
2019-02-06T01:06:05.433Z,26.60
2019-02-06T01:08:36.718Z,24.73
2019-02-06T01:11:07.884Z,26.13
2019-02-06T01:13:38.170Z,25.00
2019-02-06T01:16:09.699Z,25.93
2019-02-06T01:18:40.077Z,24.07
2019-02-06T01:21:12.180Z,25.30
2019-02-06T01:23:43.809Z,23.47
2019-02-06T01:26:14.856Z,23.83
2019-02-06T01:28:45.337Z,24.90
2019-02-06T01:31:22.500Z,25.27
2019-02-06T01:33:52.810Z,24.73
2019-02-06T01:36:23.307Z,23.83
2019-02-06T01:38:53.709Z,24.53
2019-02-06T01:41:24.070Z,23.17
2019-02-06T01:43:54.424Z,23.53
2019-02-06T01:46:24.720Z,24.67
2019-02-06T01:48:55.251Z,24.23
2019-02-06T01:51:26.216Z,24.00
2019-02-06T01:53:58.120Z,23.93
2019-02-06T01:56:28.420Z,23.63
2019-02-06T01:58:58.914Z,23.80
2019-02-06T02:01:29.303Z,23.67
2019-02-06T02:04:01.296Z,24.80
2019-02-06T02:06:31.779Z,24.37
2019-02-06T02:09:02.315Z,23.60
2019-02-06T02:11:34.225Z,22.80
2019-02-06T02:14:05.182Z,22.77
2019-02-06T02:16:35.639Z,23.30
2019-02-06T02:19:08.166Z,22.43
2019-02-06T02:21:38.717Z,22.87
2019-02-06T02:24:09.421Z,22.07
2019-02-06T02:26:39.956Z,23.37
2019-02-06T02:29:10.423Z,22.87
2019-02-06T02:31:41.139Z,23.07
2019-02-06T02:34:11.496Z,22.57
2019-02-06T02:36:41.974Z,21.77
2019-02-06T02:39:12.486Z,22.47
2019-02-06T02:41:43.016Z,21.40
2019-02-06T02:44:13.524Z,21.40
2019-02-06T02:46:44.386Z,21.73
2019-02-06T02:49:14.807Z,22.20
2019-02-06T02:51:45.242Z,21.70
2019-02-06T02:54:15.791Z,21.87
2019-02-06T02:56:46.383Z,22.00
2019-02-06T02:59:17.215Z,21.97
2019-02-06T03:02:05.357Z,21.70
2019-02-06T03:04:39.764Z,21.07
2019-02-06T03:07:10.107Z,22.53
2019-02-06T03:09:40.756Z,20.40
2019-02-06T03:12:11.165Z,20.53
2019-02-06T03:14:41.488Z,21.83
2019-02-06T03:17:11.888Z,22.97
2019-02-06T03:19:42.295Z,21.57
2019-02-06T03:22:12.680Z,20.57
2019-02-06T03:24:42.995Z,20.80
2019-02-06T03:27:13.344Z,19.97
2019-02-06T03:29:43.696Z,21.57
2019-02-06T03:32:15.502Z,22.00
2019-02-06T03:34:45.862Z,21.43
2019-02-06T03:37:16.555Z,20.60
2019-02-06T03:39:46.876Z,21.70
2019-02-06T03:42:17.262Z,22.17
2019-02-06T03:44:47.480Z,22.47
2019-02-06T03:47:17.803Z,21.93
2019-02-06T03:49:48.894Z,20.93
2019-02-06T03:52:19.253Z,21.57
2019-02-06T03:54:49.578Z,22.30
2019-02-06T03:57:19.903Z,21.60
2019-02-06T03:59:50.240Z,21.67
2019-02-06T04:02:20.653Z,20.90
2019-02-06T04:04:51.273Z,21.27
2019-02-06T04:07:21.746Z,22.13
2019-02-06T04:09:52.220Z,23.03
2019-02-06T04:12:22.522Z,23.13
2019-02-06T04:14:52.893Z,22.43
2019-02-06T04:17:23.199Z,22.47
2019-02-06T04:19:53.825Z,22.03
2019-02-06T04:22:24.175Z,23.50
2019-02-06T04:24:54.581Z,23.17
2019-02-06T04:27:24.931Z,23.67
2019-02-06T04:29:55.333Z,22.97
2019-02-06T04:32:25.900Z,23.70
2019-02-06T04:34:56.516Z,23.50
2019-02-06T04:37:26.879Z,24.10
2019-02-06T04:39:57.345Z,23.67
2019-02-06T04:42:27.707Z,23.93
2019-02-06T04:44:58.298Z,24.87
2019-02-06T04:47:28.728Z,24.83
2019-02-06T04:49:59.156Z,23.63
2019-02-06T04:52:29.521Z,26.13
2019-02-06T04:55:00.029Z,25.90
2019-02-06T04:57:30.411Z,26.90
2019-02-06T05:00:00.778Z,26.27
2019-02-06T05:02:31.615Z,27.23
2019-02-06T05:05:02.040Z,26.93
2019-02-06T05:07:32.435Z,28.60
2019-02-06T05:10:02.880Z,27.70
2019-02-06T05:12:33.239Z,26.00
2019-02-06T05:15:04.790Z,27.13
2019-02-06T05:17:35.189Z,28.00
2019-02-06T05:20:14.997Z,29.47
2019-02-06T05:22:48.451Z,28.67
2019-02-06T05:25:18.799Z,29.57
2019-02-06T05:27:49.496Z,30.13
2019-02-06T05:30:20.136Z,31.37
2019-02-06T05:32:50.771Z,30.97
2019-02-06T05:35:21.234Z,31.83
2019-02-06T05:37:51.643Z,32.50
2019-02-06T05:40:22.077Z,32.33
2019-02-06T05:42:54.040Z,33.97
2019-02-06T05:45:24.448Z,36.20
2019-02-06T05:47:55.963Z,36.20
2019-02-06T05:50:28.345Z,37.00
2019-02-06T05:53:03.938Z,38.33
2019-02-06T05:55:34.623Z,38.70
2019-02-06T05:58:05.616Z,40.53
2019-02-06T06:00:43.204Z,40.10
2019-02-06T06:03:14.935Z,39.27
2019-02-06T06:05:45.548Z,39.90
2019-02-06T06:08:19.176Z,39.77
2019-02-06T06:10:49.831Z,39.73
2019-02-06T06:13:20.348Z,41.03
2019-02-06T06:15:51.472Z,40.73
2019-02-06T06:18:22.147Z,40.80
2019-02-06T06:20:52.746Z,39.20
2019-02-06T06:23:23.193Z,39.77
2019-02-06T06:25:53.699Z,43.30
2019-02-06T06:28:24.522Z,40.87
2019-02-06T06:30:54.964Z,44.50
2019-02-06T06:33:25.542Z,42.50
2019-02-06T06:35:56.123Z,41.27
2019-02-06T06:38:26.487Z,42.00
2019-02-06T06:40:56.901Z,40.80
2019-02-06T06:43:27.457Z,41.27
2019-02-06T06:45:57.912Z,40.97
2019-02-06T06:48:28.268Z,43.13
2019-02-06T06:50:58.864Z,41.70
2019-02-06T06:53:31.747Z,41.27
2019-02-06T06:56:02.099Z,40.50
2019-02-06T06:58:32.669Z,40.90
2019-02-06T07:01:03.183Z,42.90
2019-02-06T07:03:33.601Z,39.37
2019-02-06T07:06:03.969Z,40.03
2019-02-06T07:08:34.425Z,42.47
2019-02-06T07:11:04.729Z,41.00
2019-02-06T07:13:35.111Z,38.23
2019-02-06T07:16:05.539Z,40.73
2019-02-06T07:18:37.565Z,41.33
2019-02-06T07:21:07.875Z,39.10
2019-02-06T07:23:39.970Z,42.93
2019-02-06T07:26:10.303Z,40.73
2019-02-06T07:28:40.591Z,38.93
2019-02-06T07:31:10.903Z,39.70
2019-02-06T07:33:41.270Z,39.43
2019-02-06T07:36:11.567Z,39.63
2019-02-06T07:38:41.983Z,39.57
2019-02-06T07:41:12.359Z,37.33
2019-02-06T07:43:42.821Z,36.33
2019-02-06T07:46:13.170Z,35.80
2019-02-06T07:48:43.648Z,34.70
2019-02-06T07:51:14.083Z,34.33
2019-02-06T07:53:44.412Z,33.33
2019-02-06T07:56:14.782Z,32.97
2019-02-06T07:58:46.933Z,34.63
2019-02-06T08:01:17.232Z,31.93
2019-02-06T08:03:47.656Z,30.60
2019-02-06T08:06:17.988Z,30.23
2019-02-06T08:08:49.136Z,32.73
2019-02-06T08:11:19.482Z,30.20
2019-02-06T08:13:49.922Z,29.40
2019-02-06T08:16:20.208Z,28.63
2019-02-06T08:18:50.710Z,28.83
2019-02-06T08:21:21.096Z,29.47
2019-02-06T08:23:53.049Z,29.17
2019-02-06T08:26:23.658Z,31.43
2019-02-06T08:28:53.940Z,30.50
2019-02-06T08:31:24.208Z,28.20
2019-02-06T08:33:54.533Z,30.67
2019-02-06T08:36:24.790Z,31.50
2019-02-06T08:38:57.775Z,31.83
2019-02-06T08:41:28.153Z,31.60
2019-02-06T08:44:01.622Z,29.77
2019-02-06T08:46:30.489Z,29.73
2019-02-06T08:49:00.941Z,31.43
2019-02-06T08:51:31.374Z,32.47
2019-02-06T08:54:01.771Z,30.90
2019-02-06T08:56:32.080Z,30.63
2019-02-06T08:59:04.132Z,27.87
2019-02-06T09:01:34.820Z,25.07
2019-02-06T09:04:10.023Z,27.70
2019-02-06T09:06:40.613Z,25.77
2019-02-06T09:09:12.180Z,26.50
2019-02-06T09:11:42.543Z,26.90
2019-02-06T09:14:12.875Z,25.73
2019-02-06T09:16:43.515Z,26.33
2019-02-06T09:19:13.876Z,28.27
2019-02-06T09:21:44.208Z,26.23
2019-02-06T09:24:14.591Z,26.83
2019-02-06T09:26:44.923Z,26.40
2019-02-06T09:29:15.285Z,24.60
2019-02-06T09:31:45.711Z,25.83
2019-02-06T09:34:16.436Z,22.20
2019-02-06T09:36:46.781Z,21.93
2019-02-06T09:39:17.094Z,21.60
2019-02-06T09:41:47.381Z,21.80
2019-02-06T09:44:17.857Z,21.37
2019-02-06T09:46:50.618Z,20.07
2019-02-06T09:49:20.965Z,21.00
2019-02-06T09:51:51.432Z,22.57
2019-02-06T09:54:21.829Z,23.07
2019-02-06T09:56:52.192Z,22.63
2019-02-06T09:59:22.558Z,20.30
2019-02-06T10:01:53.378Z,22.00
2019-02-06T10:04:24.101Z,23.57
2019-02-06T10:06:54.549Z,24.23
2019-02-06T10:09:24.941Z,24.77
2019-02-06T10:11:55.383Z,22.77
2019-02-06T10:14:25.803Z,25.43
2019-02-06T10:16:56.646Z,27.20
2019-02-06T10:19:27.094Z,25.60
2019-02-06T10:21:57.386Z,25.23
2019-02-06T10:24:29.347Z,25.57
2019-02-06T10:26:59.747Z,25.80
2019-02-06T10:29:30.082Z,26.37
2019-02-06T10:32:00.473Z,25.97
2019-02-06T10:34:30.815Z,26.33
2019-02-06T10:37:01.197Z,27.20
2019-02-06T10:39:34.703Z,26.23
2019-02-06T10:42:03.703Z,29.40
2019-02-06T10:44:34.115Z,26.80
2019-02-06T10:47:04.407Z,25.87
2019-02-06T10:49:34.788Z,24.83
2019-02-06T10:52:05.242Z,23.47
2019-02-06T10:54:35.540Z,23.83
2019-02-06T10:57:05.885Z,23.87
2019-02-06T10:59:36.281Z,21.00
2019-02-06T11:02:06.918Z,19.80
2019-02-06T11:04:37.453Z,19.77
2019-02-06T11:07:08.310Z,20.63
2019-02-06T11:09:45.875Z,20.00
2019-02-06T11:12:11.274Z,18.70
2019-02-06T11:14:41.754Z,18.40
2019-02-06T11:17:12.130Z,18.83
2019-02-06T11:19:43.244Z,17.73
2019-02-06T11:22:13.900Z,18.23
2019-02-06T11:24:44.358Z,17.93
2019-02-06T11:27:31.879Z,17.90
2019-02-06T11:30:08.390Z,17.17
2019-02-06T11:32:38.886Z,15.50
2019-02-06T11:35:11.942Z,15.70
2019-02-06T11:37:42.001Z,15.60
2019-02-06T11:40:16.963Z,15.47
2019-02-06T11:42:48.835Z,15.30
2019-02-06T11:45:22.355Z,14.40
2019-02-06T11:47:52.764Z,14.63
2019-02-06T11:50:28.453Z,13.97
2019-02-06T11:52:58.880Z,14.43
2019-02-06T11:55:29.487Z,13.00
2019-02-06T11:57:59.965Z,13.47
2019-02-06T12:01:05.420Z,14.73
2019-02-06T12:03:35.868Z,12.63
2019-02-06T12:06:07.996Z,12.83
2019-02-06T12:08:38.406Z,11.90
2019-02-06T12:11:10.343Z,12.97
2019-02-06T12:13:40.809Z,13.53
2019-02-06T12:16:11.289Z,12.53
2019-02-06T12:18:41.875Z,13.93
2019-02-06T12:21:13.261Z,15.00
2019-02-06T12:23:44.043Z,12.57
2019-02-06T12:26:14.493Z,13.57
2019-02-06T12:28:45.068Z,14.80
2019-02-06T12:31:15.641Z,14.13
2019-02-06T12:33:46.236Z,15.83
2019-02-06T12:36:17.265Z,15.53
2019-02-06T12:38:53.730Z,15.47
2019-02-06T12:41:20.931Z,15.37
2019-02-06T12:43:51.324Z,15.60
2019-02-06T12:46:21.924Z,15.93
2019-02-06T12:48:52.438Z,14.67
2019-02-06T12:51:23.160Z,13.40
2019-02-06T12:53:53.542Z,13.23
2019-02-06T12:56:24.160Z,15.00
2019-02-06T12:58:54.448Z,14.10
2019-02-06T13:01:24.964Z,13.80
2019-02-06T13:03:55.283Z,14.20
2019-02-06T13:06:25.714Z,14.40
2019-02-06T13:08:56.165Z,15.10
2019-02-06T13:11:26.520Z,15.70
2019-02-06T13:13:56.816Z,16.60
2019-02-06T13:16:27.208Z,16.67
2019-02-06T13:19:02.819Z,18.30
2019-02-06T13:21:33.363Z,19.47
2019-02-06T13:24:03.636Z,21.00
2019-02-06T13:26:34.020Z,19.60
2019-02-06T13:29:06.421Z,20.87
2019-02-06T13:31:37.862Z,20.37
2019-02-06T13:34:08.291Z,20.33
2019-02-06T13:36:38.737Z,21.83
2019-02-06T13:39:11.185Z,20.73
2019-02-06T13:41:43.148Z,20.53
2019-02-06T13:44:13.503Z,21.73
2019-02-06T13:46:53.057Z,21.33
2019-02-06T13:49:16.072Z,21.20
2019-02-06T13:51:49.039Z,24.43
2019-02-06T13:54:19.492Z,22.70
2019-02-06T13:56:49.913Z,22.80
2019-02-06T13:59:20.596Z,23.13
2019-02-06T14:01:51.069Z,24.63
2019-02-06T14:04:24.331Z,24.23
2019-02-06T14:06:55.721Z,22.90
2019-02-06T14:09:26.652Z,24.53
2019-02-06T14:11:57.633Z,24.60
2019-02-06T14:14:28.104Z,23.63
2019-02-06T14:16:58.572Z,25.37
2019-02-06T14:19:32.136Z,24.77
2019-02-06T14:22:02.772Z,26.20
2019-02-06T14:24:59.426Z,24.87
2019-02-06T14:27:56.334Z,25.63
2019-02-06T14:31:06.210Z,25.60
2019-02-06T14:34:08.281Z,26.60
2019-02-06T14:37:20.223Z,26.10
2019-02-06T14:40:21.433Z,25.60
2019-02-06T14:43:41.669Z,26.60
2019-02-06T14:46:37.018Z,26.07
2019-02-06T14:50:03.814Z,26.70
2019-02-06T14:53:13.948Z,28.93
2019-02-06T14:56:14.697Z,27.30
2019-02-06T14:59:19.034Z,29.67
2019-02-06T15:02:27.085Z,30.47
2019-02-06T15:06:02.849Z,30.00
2019-02-06T15:09:01.395Z,28.23
2019-02-06T15:12:05.328Z,29.50
2019-02-06T15:15:11.999Z,27.83
2019-02-06T15:18:12.949Z,25.97
2019-02-06T15:21:30.861Z,28.67
2019-02-06T15:24:33.610Z,26.60
2019-02-06T15:27:32.308Z,25.03
2019-02-06T15:30:23.315Z,26.67
2019-02-06T15:33:37.815Z,25.00
2019-02-06T15:36:35.301Z,24.03
2019-02-06T15:39:55.950Z,20.03
2019-02-06T15:42:57.715Z,20.93
2019-02-06T15:45:53.137Z,19.20
2019-02-06T15:49:19.343Z,18.00
2019-02-06T15:52:54.829Z,20.13
2019-02-06T15:55:53.439Z,19.77
2019-02-06T15:58:54.790Z,20.17
2019-02-06T16:01:57.689Z,19.83
2019-02-06T16:05:33.632Z,20.17
2019-02-06T16:08:45.258Z,20.90
2019-02-06T16:11:51.269Z,17.27
2019-02-06T16:14:47.459Z,14.93
2019-02-06T16:17:51.002Z,15.37
2019-02-06T16:21:11.017Z,14.30
2019-02-06T16:24:19.065Z,14.10
2019-02-06T16:27:39.301Z,13.77
2019-02-06T16:30:24.832Z,13.20
2019-02-06T16:33:49.837Z,14.93
2019-02-06T16:36:48.648Z,14.67
2019-02-06T16:39:48.208Z,14.07
2019-02-06T16:43:07.582Z,14.87
2019-02-06T16:46:11.450Z,15.83
2019-02-06T16:49:01.401Z,15.57
2019-02-06T16:52:22.200Z,15.43
2019-02-06T16:55:26.764Z,16.10
2019-02-06T16:58:06.015Z,17.57
2019-02-06T17:01:20.763Z,17.57
2019-02-06T17:04:38.655Z,16.63
2019-02-06T17:07:44.102Z,16.93
2019-02-06T17:10:45.203Z,15.93
2019-02-06T17:14:08.756Z,15.93
2019-02-06T17:17:04.308Z,15.83
2019-02-06T17:20:12.582Z,14.90
2019-02-06T17:23:11.314Z,15.87
2019-02-06T17:26:20.982Z,16.83
2019-02-06T17:29:34.920Z,17.43
2019-02-06T17:32:58.418Z,16.40
2019-02-06T17:35:47.849Z,15.47
2019-02-06T17:39:05.542Z,15.93
2019-02-06T17:42:15.875Z,14.63
2019-02-06T17:45:16.532Z,15.50
2019-02-06T17:48:15.178Z,15.43
2019-02-06T17:51:26.515Z,15.53
2019-02-06T17:54:43.175Z,16.33
2019-02-06T17:57:13.646Z,15.13
2019-02-06T17:59:46.849Z,18.17
2019-02-06T18:02:18.534Z,16.77
2019-02-06T18:04:52.288Z,17.43
2019-02-06T18:07:25.704Z,17.80
2019-02-06T18:09:56.169Z,17.63
2019-02-06T18:12:28.556Z,15.93
2019-02-06T18:14:58.681Z,16.00
2019-02-06T18:17:29.080Z,14.10
2019-02-06T18:19:59.393Z,13.67
2019-02-06T18:22:29.790Z,14.40
2019-02-06T18:25:00.297Z,13.80
2019-02-06T18:27:31.067Z,14.40
2019-02-06T18:30:01.795Z,15.33
2019-02-06T18:32:33.040Z,15.03
2019-02-06T18:35:05.802Z,14.27
2019-02-06T18:37:43.485Z,13.83
2019-02-06T18:40:10.389Z,14.67
2019-02-06T18:42:40.914Z,13.70
2019-02-06T18:45:14.316Z,14.17
2019-02-06T18:47:44.807Z,14.17
2019-02-06T18:50:18.679Z,13.73
2019-02-06T18:52:50.066Z,14.73
2019-02-06T18:55:21.287Z,15.00
2019-02-06T18:57:51.866Z,15.53
2019-02-06T19:00:25.525Z,14.43
2019-02-06T19:02:56.296Z,16.37
2019-02-06T19:05:30.175Z,16.30
2019-02-06T19:08:01.216Z,16.47
2019-02-06T19:10:34.864Z,13.90
2019-02-06T19:13:05.641Z,13.73
2019-02-06T19:15:36.706Z,13.73
2019-02-06T19:18:10.343Z,14.30
2019-02-06T19:20:40.813Z,15.10
2019-02-06T19:23:11.263Z,15.93
2019-02-06T19:25:44.673Z,15.50
2019-02-06T19:28:15.665Z,17.33
2019-02-06T19:30:48.246Z,19.97
2019-02-06T19:33:20.941Z,19.40
2019-02-06T19:35:52.798Z,23.70
2019-02-06T19:38:23.162Z,24.43
2019-02-06T19:40:53.636Z,26.93
2019-02-06T19:43:24.495Z,24.83
2019-02-06T19:45:58.693Z,26.50
2019-02-06T19:48:33.437Z,26.63
2019-02-06T19:51:03.957Z,25.83
2019-02-06T19:53:34.485Z,25.70
2019-02-06T19:56:05.678Z,26.30
2019-02-06T19:58:36.322Z,25.47
2019-02-06T20:01:07.006Z,25.23
2019-02-06T20:03:40.312Z,22.53
2019-02-06T20:06:28.509Z,23.00
2019-02-06T20:09:11.595Z,22.67
2019-02-06T20:11:42.320Z,23.23
2019-02-06T20:14:12.805Z,21.67
2019-02-06T20:16:43.331Z,22.67
2019-02-06T20:19:14.023Z,22.80
2019-02-06T20:21:44.997Z,21.23
2019-02-06T20:24:15.535Z,22.67
2019-02-06T20:26:46.016Z,24.57
2019-02-06T20:29:18.182Z,23.40
2019-02-06T20:31:49.803Z,23.40
2019-02-06T20:34:20.307Z,23.00
2019-02-06T20:36:56.415Z,23.63
2019-02-06T20:39:27.108Z,24.77
2019-02-06T20:41:57.619Z,26.73
2019-02-06T20:44:29.822Z,26.93
2019-02-06T20:47:04.286Z,28.27
2019-02-06T20:49:36.214Z,29.13
2019-02-06T20:52:06.745Z,30.93
2019-02-06T20:54:37.506Z,30.73
2019-02-06T20:57:13.571Z,30.27
2019-02-06T20:59:40.168Z,30.57
2019-02-06T21:02:13.757Z,30.17
2019-02-06T21:04:47.062Z,29.80
2019-02-06T21:07:16.798Z,31.57
2019-02-06T21:09:47.221Z,31.00
2019-02-06T21:12:17.634Z,30.80
2019-02-06T21:14:48.511Z,30.13
2019-02-06T21:17:19.463Z,31.60
2019-02-06T21:19:49.998Z,30.60
2019-02-06T21:22:20.515Z,33.60
2019-02-06T21:24:51.183Z,33.00
2019-02-06T21:27:21.646Z,32.03
2019-02-06T21:29:54.104Z,31.03
2019-02-06T21:32:24.563Z,32.97
2019-02-06T21:34:54.997Z,31.90
2019-02-06T21:37:27.100Z,30.63
2019-02-06T21:39:57.529Z,30.60
2019-02-06T21:42:27.913Z,34.30
2019-02-06T21:44:58.485Z,34.53
2019-02-06T21:47:28.895Z,35.47
2019-02-06T21:49:59.680Z,34.47
2019-02-06T21:52:30.159Z,35.63
2019-02-06T21:55:00.537Z,36.73
2019-02-06T21:57:32.789Z,37.80
2019-02-06T22:00:03.287Z,38.10
2019-02-06T22:02:34.961Z,36.20
2019-02-06T22:05:06.151Z,34.50
2019-02-06T22:07:36.522Z,38.10
2019-02-06T22:10:08.292Z,36.07
2019-02-06T22:12:38.645Z,35.60
2019-02-06T22:15:15.648Z,36.57
2019-02-06T22:17:46.219Z,35.10
2019-02-06T22:20:18.343Z,36.97
2019-02-06T22:22:49.119Z,37.10
2019-02-06T22:25:19.737Z,36.60
2019-02-06T22:27:51.242Z,35.33
2019-02-06T22:30:23.639Z,36.17
2019-02-06T22:32:55.908Z,35.57
2019-02-06T22:35:26.706Z,34.83
2019-02-06T22:37:57.519Z,34.77
2019-02-06T22:40:27.936Z,35.50
2019-02-06T22:42:58.366Z,34.00
2019-02-06T22:45:29.132Z,34.93
2019-02-06T22:47:59.483Z,35.27
2019-02-06T22:50:29.992Z,37.50
2019-02-06T22:53:00.452Z,36.47
2019-02-06T22:55:30.840Z,37.00
2019-02-06T22:58:01.200Z,41.07
2019-02-06T23:00:49.610Z,42.57
2019-02-06T23:03:29.775Z,36.67
2019-02-06T23:06:00.147Z,39.17
2019-02-06T23:08:30.517Z,40.50
2019-02-06T23:11:01.210Z,38.33
2019-02-06T23:13:31.693Z,38.17
2019-02-06T23:16:02.160Z,35.53
2019-02-06T23:18:32.575Z,36.57
2019-02-06T23:21:03.015Z,36.17
2019-02-06T23:23:33.493Z,36.00
2019-02-06T23:26:05.221Z,36.67
2019-02-06T23:28:37.696Z,33.90
2019-02-06T23:31:08.228Z,34.63
2019-02-06T23:33:38.644Z,31.53
2019-02-06T23:36:08.996Z,32.43
2019-02-06T23:38:39.371Z,33.00
2019-02-06T23:41:09.790Z,31.03
2019-02-06T23:43:40.138Z,30.83
2019-02-06T23:46:11.843Z,32.33
2019-02-06T23:48:42.210Z,30.57
2019-02-06T23:51:12.874Z,32.17
2019-02-06T23:53:44.786Z,30.77
2019-02-06T23:56:15.176Z,30.07
2019-02-06T23:58:45.506Z,28.90
